ADDS METAR Data INFO
IDs: Format: Raw Decoded Include TAF

Data at: 2058 UTC 19 Jul 2018

KBFL 192054Z 29009KT 10SM CLR 39/10 A2984 RMK AO2 SLP094 T03890100 58023
KBFL 191954Z 31008KT 10SM CLR 38/12 A2986 RMK AO2 SLP103 T03830122
KBFL 191854Z 31009KT 10SM CLR 37/11 A2988 RMK AO2 SLP111 T03670106
KBFL 191754Z 29006KT 10SM CLR 34/09 A2990 RMK AO2 SLP117 T03440094 10344 20272 58001
KBFL 191654Z 31005KT 10SM CLR 34/09 A2991 RMK AO2 SLP118 T03390094
KBFL 191554Z 31006KT 10SM CLR 32/09 A2991 RMK AO2 SLP121 T03220094
KBFL 191454Z 32004KT 10SM CLR 31/08 A2991 RMK AO2 SLP119 T03060083 52010
KBFL 191354Z 36006KT 10SM CLR 29/07 A2990 RMK AO2 SLP115 T02890072
KBFL 191254Z 36006KT 10SM CLR 29/07 A2989 RMK AO2 SLP112 T02890067
KBFL 191154Z 05003KT 10SM CLR 28/08 A2988 RMK AO2 SLP108 T02780078 10322 20278 55000
KBFL 191054Z 00000KT 10SM CLR 28/08 A2987 RMK AO2 SLP105 T02830078
KBFL 190954Z 00000KT 10SM CLR 29/09 A2987 RMK AO2 SLP107 T02940089
KBFL 190854Z 04005KT 10SM CLR 29/08 A2988 RMK AO2 SLP108 T02940078 58001
KBFL 190754Z 03006KT 10SM CLR 31/08 A2988 RMK AO2 SLP109 T03060083 404000261
KBFL 190654Z 00000KT 10SM CLR 31/10 A2988 RMK AO2 SLP111 T03110100
KBFL 190554Z 01004KT 10SM CLR 32/10 A2988 RMK AO2 SLP109 T03170100 10400 20306 51015
KBFL 190454Z AUTO 36005KT 10SM CLR 34/12 A2987 RMK AO2 SLP105 T03390122
KBFL 190354Z 34003KT 10SM CLR 35/12 A2985 RMK AO2 SLP100 T03500117
KBFL 190254Z 27007KT 10SM CLR 37/09 A2983 RMK AO2 SLP094 T03670094 56006
KBFL 190154Z 30007KT 10SM CLR 38/08 A2984 RMK AO2 SLP095 T03780083
KBFL 190054Z 36006KT 10SM CLR 39/06 A2984 RMK AO2 SLP096 T03940061
KBFL 182354Z 32007KT 10SM CLR 38/06 A2985 RMK AO2 SLP100 T03780061 10389 20333 56018
KBFL 182254Z 30007KT 10SM CLR 38/05 A2987 RMK AO2 SLP105 T03830050
KBFL 182154Z 28005KT 10SM CLR 38/06 A2989 RMK AO2 SLP113 T03830056
KBFL 182054Z 30006KT 10SM CLR 37/07 A2991 RMK AO2 SLP118 T03720072 58013
KBFL 181954Z 00000KT 10SM CLR 37/05 A2992 RMK AO2 SLP125 T03670050
KBFL 181854Z 33008KT 10SM CLR 37/05 A2994 RMK AO2 SLP129 T03670050
KBFL 181754Z 00000KT 10SM CLR 33/11 A2994 RMK AO2 SLP132 T03330106 10333 20261 51000
KBFL 181654Z 00000KT 10SM CLR 32/10 A2994 RMK AO2 SLP130 T03170100
KBFL 181554Z 13003KT 10SM CLR 30/11 A2995 RMK AO2 SLP133 T03000111
KBFL 181454Z 13005KT 10SM CLR 28/12 A2994 RMK AO2 SLP131 T02830122 53006
KBFL 181354Z 12007KT 10SM CLR 27/13 A2993 RMK AO2 SLP128 T02670133
KBFL 181254Z 13006KT 10SM CLR 27/13 A2993 RMK AO2 SLP127 T02670133
KBFL 181154Z AUTO 14004KT 10SM CLR 27/13 A2993 RMK AO2 SLP125 T02670128 10333 20261 51005
KBFL 181054Z AUTO 00000KT 9SM CLR 27/13 A2992 RMK AO2 SLP124 T02720128
KBFL 180954Z AUTO 33004KT 8SM CLR 27/13 A2992 RMK AO2 SLP122 T02720133